sensor_id;sensor_type;location;lat;lon;timestamp;P1;durP1;ratioP1;P2;durP2;ratioP2
77324;SDS011;66387;53.440;10.390;2023-06-26T00:01:58;7.73;;;6.93;;
77324;SDS011;66387;53.440;10.390;2023-06-26T00:04:24;7.80;;;7.00;;
77324;SDS011;66387;53.440;10.390;2023-06-26T00:06:49;7.37;;;6.60;;
77324;SDS011;66387;53.440;10.390;2023-06-26T00:09:14;6.83;;;6.23;;
77324;SDS011;66387;53.440;10.390;2023-06-26T00:11:39;7.37;;;6.27;;
77324;SDS011;66387;53.440;10.390;2023-06-26T00:14:05;7.73;;;6.90;;
77324;SDS011;66387;53.440;10.390;2023-06-26T00:16:31;7.35;;;6.75;;
77324;SDS011;66387;53.440;10.390;2023-06-26T00:18:56;7.75;;;6.82;;
77324;SDS011;66387;53.440;10.390;2023-06-26T00:21:23;6.90;;;6.20;;
77324;SDS011;66387;53.440;10.390;2023-06-26T00:23:49;7.60;;;6.87;;
77324;SDS011;66387;53.440;10.390;2023-06-26T00:26:14;6.30;;;5.70;;
77324;SDS011;66387;53.440;10.390;2023-06-26T00:28:39;6.90;;;6.10;;
77324;SDS011;66387;53.440;10.390;2023-06-26T00:31:04;7.40;;;5.97;;
77324;SDS011;66387;53.440;10.390;2023-06-26T00:33:30;7.20;;;6.50;;
77324;SDS011;66387;53.440;10.390;2023-06-26T00:35:55;6.93;;;5.70;;
77324;SDS011;66387;53.440;10.390;2023-06-26T00:38:20;7.57;;;6.87;;
77324;SDS011;66387;53.440;10.390;2023-06-26T00:40:46;6.13;;;5.53;;
77324;SDS011;66387;53.440;10.390;2023-06-26T00:43:11;6.60;;;6.00;;
77324;SDS011;66387;53.440;10.390;2023-06-26T00:45:36;7.43;;;5.73;;
77324;SDS011;66387;53.440;10.390;2023-06-26T00:48:01;6.83;;;6.20;;
77324;SDS011;66387;53.440;10.390;2023-06-26T00:50:28;6.38;;;5.78;;
77324;SDS011;66387;53.440;10.390;2023-06-26T00:52:54;6.57;;;5.97;;
77324;SDS011;66387;53.440;10.390;2023-06-26T00:55:21;6.72;;;6.13;;
77324;SDS011;66387;53.440;10.390;2023-06-26T00:57:47;7.82;;;6.20;;
77324;SDS011;66387;53.440;10.390;2023-06-26T01:00:12;6.67;;;5.90;;
77324;SDS011;66387;53.440;10.390;2023-06-26T01:02:38;7.28;;;6.45;;
77324;SDS011;66387;53.440;10.390;2023-06-26T01:05:04;8.67;;;6.50;;
77324;SDS011;66387;53.440;10.390;2023-06-26T01:07:31;6.45;;;5.70;;
77324;SDS011;66387;53.440;10.390;2023-06-26T01:10:01;6.82;;;6.13;;
77324;SDS011;66387;53.440;10.390;2023-06-26T01:12:30;7.65;;;6.60;;
77324;SDS011;66387;53.440;10.390;2023-06-26T01:14:56;8.43;;;6.20;;
77324;SDS011;66387;53.440;10.390;2023-06-26T01:17:21;7.47;;;6.70;;
77324;SDS011;66387;53.440;10.390;2023-06-26T01:19:48;8.25;;;7.00;;
77324;SDS011;66387;53.440;10.390;2023-06-26T01:25:03;7.35;;;6.25;;
77324;SDS011;66387;53.440;10.390;2023-06-26T01:27:36;6.70;;;6.00;;
77324;SDS011;66387;53.440;10.390;2023-06-26T01:30:03;6.57;;;5.97;;
77324;SDS011;66387;53.440;10.390;2023-06-26T01:34:57;6.43;;;5.82;;
77324;SDS011;66387;53.440;10.390;2023-06-26T01:37:22;6.72;;;5.25;;
77324;SDS011;66387;53.440;10.390;2023-06-26T01:39:48;7.78;;;6.43;;
77324;SDS011;66387;53.440;10.390;2023-06-26T01:42:13;6.63;;;5.93;;
77324;SDS011;66387;53.440;10.390;2023-06-26T01:44:40;7.35;;;6.13;;
77324;SDS011;66387;53.440;10.390;2023-06-26T01:47:09;6.65;;;5.95;;
77324;SDS011;66387;53.440;10.390;2023-06-26T01:52:20;6.88;;;6.07;;
77324;SDS011;66387;53.440;10.390;2023-06-26T01:55:07;5.97;;;5.38;;
77324;SDS011;66387;53.440;10.390;2023-06-26T01:57:40;6.43;;;5.82;;
77324;SDS011;66387;53.440;10.390;2023-06-26T02:00:06;6.47;;;5.28;;
77324;SDS011;66387;53.440;10.390;2023-06-26T02:02:36;7.65;;;5.60;;
77324;SDS011;66387;53.440;10.390;2023-06-26T02:05:01;6.60;;;6.00;;
77324;SDS011;66387;53.440;10.390;2023-06-26T02:07:26;7.53;;;6.83;;
77324;SDS011;66387;53.440;10.390;2023-06-26T02:09:52;5.73;;;5.13;;
77324;SDS011;66387;53.440;10.390;2023-06-26T02:12:17;5.53;;;5.03;;
77324;SDS011;66387;53.440;10.390;2023-06-26T02:14:42;6.10;;;5.50;;
77324;SDS011;66387;53.440;10.390;2023-06-26T02:17:07;7.33;;;5.87;;
77324;SDS011;66387;53.440;10.390;2023-06-26T02:19:33;5.93;;;5.00;;
77324;SDS011;66387;53.440;10.390;2023-06-26T02:21:59;6.10;;;5.25;;
77324;SDS011;66387;53.440;10.390;2023-06-26T02:24:24;8.70;;;6.10;;
77324;SDS011;66387;53.440;10.390;2023-06-26T02:26:49;7.20;;;6.32;;
77324;SDS011;66387;53.440;10.390;2023-06-26T02:29:15;6.13;;;5.40;;
77324;SDS011;66387;53.440;10.390;2023-06-26T02:31:40;7.90;;;6.40;;
77324;SDS011;66387;53.440;10.390;2023-06-26T02:34:05;6.25;;;5.50;;
77324;SDS011;66387;53.440;10.390;2023-06-26T02:36:31;5.82;;;5.22;;
77324;SDS011;66387;53.440;10.390;2023-06-26T02:38:56;6.03;;;5.43;;
77324;SDS011;66387;53.440;10.390;2023-06-26T02:41:21;6.00;;;5.40;;
77324;SDS011;66387;53.440;10.390;2023-06-26T02:43:47;6.33;;;5.73;;
77324;SDS011;66387;53.440;10.390;2023-06-26T02:46:12;7.30;;;5.60;;
77324;SDS011;66387;53.440;10.390;2023-06-26T02:48:37;7.10;;;5.63;;
77324;SDS011;66387;53.440;10.390;2023-06-26T02:51:02;8.07;;;5.60;;
77324;SDS011;66387;53.440;10.390;2023-06-26T02:53:28;5.67;;;5.17;;
77324;SDS011;66387;53.440;10.390;2023-06-26T02:55:53;6.33;;;5.73;;
77324;SDS011;66387;53.440;10.390;2023-06-26T02:58:18;6.90;;;5.47;;
77324;SDS011;66387;53.440;10.390;2023-06-26T03:00:44;5.70;;;5.07;;
77324;SDS011;66387;53.440;10.390;2023-06-26T03:03:09;7.05;;;5.85;;
77324;SDS011;66387;53.440;10.390;2023-06-26T03:05:35;7.17;;;6.47;;
77324;SDS011;66387;53.440;10.390;2023-06-26T03:08:00;6.90;;;5.40;;
77324;SDS011;66387;53.440;10.390;2023-06-26T03:10:26;8.48;;;6.05;;
77324;SDS011;66387;53.440;10.390;2023-06-26T03:12:52;5.30;;;4.80;;
77324;SDS011;66387;53.440;10.390;2023-06-26T03:15:17;7.30;;;6.60;;
77324;SDS011;66387;53.440;10.390;2023-06-26T03:17:44;7.13;;;6.25;;
77324;SDS011;66387;53.440;10.390;2023-06-26T03:20:09;6.97;;;5.77;;
77324;SDS011;66387;53.440;10.390;2023-06-26T03:22:35;6.07;;;5.45;;
77324;SDS011;66387;53.440;10.390;2023-06-26T03:25:01;6.05;;;5.45;;
77324;SDS011;66387;53.440;10.390;2023-06-26T03:27:27;6.35;;;5.70;;
77324;SDS011;66387;53.440;10.390;2023-06-26T03:29:52;7.43;;;6.23;;
77324;SDS011;66387;53.440;10.390;2023-06-26T03:32:18;7.97;;;6.30;;
77324;SDS011;66387;53.440;10.390;2023-06-26T03:34:43;7.00;;;6.30;;
77324;SDS011;66387;53.440;10.390;2023-06-26T03:37:08;8.13;;;5.93;;
77324;SDS011;66387;53.440;10.390;2023-06-26T03:39:33;7.53;;;6.17;;
77324;SDS011;66387;53.440;10.390;2023-06-26T03:41:59;6.40;;;5.63;;
77324;SDS011;66387;53.440;10.390;2023-06-26T03:44:26;6.70;;;6.10;;
77324;SDS011;66387;53.440;10.390;2023-06-26T03:46:51;7.15;;;6.45;;
77324;SDS011;66387;53.440;10.390;2023-06-26T03:49:16;6.37;;;5.77;;
77324;SDS011;66387;53.440;10.390;2023-06-26T03:51:42;7.00;;;5.80;;
77324;SDS011;66387;53.440;10.390;2023-06-26T03:54:08;7.45;;;6.15;;
77324;SDS011;66387;53.440;10.390;2023-06-26T03:56:33;8.13;;;6.13;;
77324;SDS011;66387;53.440;10.390;2023-06-26T03:58:58;7.60;;;6.13;;
77324;SDS011;66387;53.440;10.390;2023-06-26T04:01:24;6.33;;;5.73;;
77324;SDS011;66387;53.440;10.390;2023-06-26T04:03:49;8.67;;;5.87;;
77324;SDS011;66387;53.440;10.390;2023-06-26T04:06:14;7.03;;;6.00;;
77324;SDS011;66387;53.440;10.390;2023-06-26T04:08:40;6.60;;;5.83;;
77324;SDS011;66387;53.440;10.390;2023-06-26T04:11:05;7.27;;;6.20;;
77324;SDS011;66387;53.440;10.390;2023-06-26T04:13:30;6.83;;;5.77;;
77324;SDS011;66387;53.440;10.390;2023-06-26T04:15:55;6.67;;;6.07;;
77324;SDS011;66387;53.440;10.390;2023-06-26T04:18:21;9.50;;;6.77;;
77324;SDS011;66387;53.440;10.390;2023-06-26T04:21:08;6.27;;;5.67;;
77324;SDS011;66387;53.440;10.390;2023-06-26T04:23:33;7.47;;;6.45;;
77324;SDS011;66387;53.440;10.390;2023-06-26T04:25:59;8.68;;;6.38;;
77324;SDS011;66387;53.440;10.390;2023-06-26T04:28:25;7.57;;;6.90;;
77324;SDS011;66387;53.440;10.390;2023-06-26T04:30:50;6.97;;;6.27;;
77324;SDS011;66387;53.440;10.390;2023-06-26T04:33:15;6.35;;;5.60;;
77324;SDS011;66387;53.440;10.390;2023-06-26T04:35:41;6.68;;;6.07;;
77324;SDS011;66387;53.440;10.390;2023-06-26T04:38:06;6.77;;;5.97;;
77324;SDS011;66387;53.440;10.390;2023-06-26T04:40:31;6.90;;;6.20;;
77324;SDS011;66387;53.440;10.390;2023-06-26T04:42:57;6.73;;;5.57;;
77324;SDS011;66387;53.440;10.390;2023-06-26T04:45:22;7.23;;;6.53;;
77324;SDS011;66387;53.440;10.390;2023-06-26T04:47:47;6.67;;;5.97;;
77324;SDS011;66387;53.440;10.390;2023-06-26T04:50:12;8.57;;;6.10;;
77324;SDS011;66387;53.440;10.390;2023-06-26T04:52:38;10.23;;;6.00;;
77324;SDS011;66387;53.440;10.390;2023-06-26T04:55:03;9.53;;;6.00;;
77324;SDS011;66387;53.440;10.390;2023-06-26T04:57:29;6.60;;;5.82;;
77324;SDS011;66387;53.440;10.390;2023-06-26T04:59:54;6.87;;;6.17;;
77324;SDS011;66387;53.440;10.390;2023-06-26T05:02:19;7.10;;;6.37;;
77324;SDS011;66387;53.440;10.390;2023-06-26T05:04:44;6.43;;;5.23;;
77324;SDS011;66387;53.440;10.390;2023-06-26T05:07:11;6.68;;;5.32;;
77324;SDS011;66387;53.440;10.390;2023-06-26T05:09:36;7.40;;;6.43;;
77324;SDS011;66387;53.440;10.390;2023-06-26T05:12:01;6.97;;;6.27;;
77324;SDS011;66387;53.440;10.390;2023-06-26T05:14:27;7.95;;;6.05;;
77324;SDS011;66387;53.440;10.390;2023-06-26T05:16:52;6.70;;;5.93;;
77324;SDS011;66387;53.440;10.390;2023-06-26T05:19:18;7.40;;;6.70;;
77324;SDS011;66387;53.440;10.390;2023-06-26T05:21:43;6.47;;;5.78;;
77324;SDS011;66387;53.440;10.390;2023-06-26T05:24:09;6.78;;;6.07;;
77324;SDS011;66387;53.440;10.390;2023-06-26T05:26:37;7.05;;;6.35;;
77324;SDS011;66387;53.440;10.390;2023-06-26T05:29:02;7.30;;;6.03;;
77324;SDS011;66387;53.440;10.390;2023-06-26T05:31:28;7.38;;;6.60;;
77324;SDS011;66387;53.440;10.390;2023-06-26T05:33:58;6.95;;;5.65;;
77324;SDS011;66387;53.440;10.390;2023-06-26T05:36:27;7.30;;;6.15;;
77324;SDS011;66387;53.440;10.390;2023-06-26T05:38:54;6.40;;;5.75;;
77324;SDS011;66387;53.440;10.390;2023-06-26T05:41:21;7.38;;;6.38;;
77324;SDS011;66387;53.440;10.390;2023-06-26T05:43:46;8.10;;;6.25;;
77324;SDS011;66387;53.440;10.390;2023-06-26T05:46:12;7.38;;;5.60;;
77324;SDS011;66387;53.440;10.390;2023-06-26T05:48:37;7.80;;;6.20;;
77324;SDS011;66387;53.440;10.390;2023-06-26T05:51:03;7.43;;;6.03;;
77324;SDS011;66387;53.440;10.390;2023-06-26T05:53:28;6.70;;;6.00;;
77324;SDS011;66387;53.440;10.390;2023-06-26T05:55:55;9.65;;;6.53;;
77324;SDS011;66387;53.440;10.390;2023-06-26T05:58:20;6.20;;;5.60;;
77324;SDS011;66387;53.440;10.390;2023-06-26T06:00:48;7.05;;;6.35;;
77324;SDS011;66387;53.440;10.390;2023-06-26T06:03:13;7.07;;;6.37;;
77324;SDS011;66387;53.440;10.390;2023-06-26T06:05:39;7.80;;;6.53;;
77324;SDS011;66387;53.440;10.390;2023-06-26T06:08:05;7.53;;;6.72;;
77324;SDS011;66387;53.440;10.390;2023-06-26T06:10:31;7.60;;;5.93;;
77324;SDS011;66387;53.440;10.390;2023-06-26T06:12:56;6.90;;;6.20;;
77324;SDS011;66387;53.440;10.390;2023-06-26T06:15:21;7.23;;;6.53;;
77324;SDS011;66387;53.440;10.390;2023-06-26T06:17:47;7.47;;;5.78;;
77324;SDS011;66387;53.440;10.390;2023-06-26T06:20:12;7.20;;;6.00;;
77324;SDS011;66387;53.440;10.390;2023-06-26T06:22:37;7.33;;;6.07;;
77324;SDS011;66387;53.440;10.390;2023-06-26T06:25:03;6.30;;;5.47;;
77324;SDS011;66387;53.440;10.390;2023-06-26T06:27:28;8.55;;;6.32;;
77324;SDS011;66387;53.440;10.390;2023-06-26T06:29:53;7.10;;;6.03;;
77324;SDS011;66387;53.440;10.390;2023-06-26T06:32:19;7.18;;;6.47;;
77324;SDS011;66387;53.440;10.390;2023-06-26T06:34:44;7.63;;;6.67;;
77324;SDS011;66387;53.440;10.390;2023-06-26T06:37:09;6.73;;;6.00;;
77324;SDS011;66387;53.440;10.390;2023-06-26T06:39:35;6.57;;;5.87;;
77324;SDS011;66387;53.440;10.390;2023-06-26T06:42:00;7.10;;;6.50;;
77324;SDS011;66387;53.440;10.390;2023-06-26T06:44:25;8.63;;;6.50;;
77324;SDS011;66387;53.440;10.390;2023-06-26T06:46:50;8.30;;;6.57;;
77324;SDS011;66387;53.440;10.390;2023-06-26T06:49:16;7.47;;;6.03;;
77324;SDS011;66387;53.440;10.390;2023-06-26T06:51:41;7.90;;;6.07;;
77324;SDS011;66387;53.440;10.390;2023-06-26T06:54:06;8.13;;;5.83;;
77324;SDS011;66387;53.440;10.390;2023-06-26T06:56:31;6.57;;;5.87;;
77324;SDS011;66387;53.440;10.390;2023-06-26T06:58:57;8.17;;;6.60;;
77324;SDS011;66387;53.440;10.390;2023-06-26T07:01:22;6.67;;;6.07;;
77324;SDS011;66387;53.440;10.390;2023-06-26T07:03:47;7.63;;;6.50;;
77324;SDS011;66387;53.440;10.390;2023-06-26T07:06:12;7.30;;;6.13;;
77324;SDS011;66387;53.440;10.390;2023-06-26T07:08:38;8.93;;;6.82;;
77324;SDS011;66387;53.440;10.390;2023-06-26T07:11:03;7.77;;;6.07;;
77324;SDS011;66387;53.440;10.390;2023-06-26T07:13:29;6.97;;;6.07;;
77324;SDS011;66387;53.440;10.390;2023-06-26T07:15:54;7.40;;;5.80;;
77324;SDS011;66387;53.440;10.390;2023-06-26T07:18:19;6.87;;;6.17;;
77324;SDS011;66387;53.440;10.390;2023-06-26T07:20:45;6.53;;;5.93;;
77324;SDS011;66387;53.440;10.390;2023-06-26T07:23:10;6.90;;;5.70;;
77324;SDS011;66387;53.440;10.390;2023-06-26T07:25:35;7.43;;;6.23;;
77324;SDS011;66387;53.440;10.390;2023-06-26T07:28:01;7.35;;;6.60;;
77324;SDS011;66387;53.440;10.390;2023-06-26T07:30:26;6.93;;;5.77;;
77324;SDS011;66387;53.440;10.390;2023-06-26T07:32:51;6.57;;;5.97;;
77324;SDS011;66387;53.440;10.390;2023-06-26T07:35:17;6.63;;;6.03;;
77324;SDS011;66387;53.440;10.390;2023-06-26T07:37:42;7.37;;;6.23;;
77324;SDS011;66387;53.440;10.390;2023-06-26T07:40:08;7.07;;;6.23;;
77324;SDS011;66387;53.440;10.390;2023-06-26T07:42:34;8.13;;;5.97;;
77324;SDS011;66387;53.440;10.390;2023-06-26T07:44:59;7.05;;;6.32;;
77324;SDS011;66387;53.440;10.390;2023-06-26T07:47:24;7.07;;;6.38;;
77324;SDS011;66387;53.440;10.390;2023-06-26T07:49:50;6.65;;;5.95;;
77324;SDS011;66387;53.440;10.390;2023-06-26T07:52:15;6.77;;;6.10;;
77324;SDS011;66387;53.440;10.390;2023-06-26T07:54:41;6.95;;;6.25;;
77324;SDS011;66387;53.440;10.390;2023-06-26T07:57:06;7.03;;;6.33;;
77324;SDS011;66387;53.440;10.390;2023-06-26T07:59:32;7.38;;;6.47;;
77324;SDS011;66387;53.440;10.390;2023-06-26T08:01:57;7.43;;;6.72;;
77324;SDS011;66387;53.440;10.390;2023-06-26T08:04:24;7.85;;;6.82;;
77324;SDS011;66387;53.440;10.390;2023-06-26T08:06:51;6.88;;;6.18;;
77324;SDS011;66387;53.440;10.390;2023-06-26T08:09:19;6.43;;;5.82;;
77324;SDS011;66387;53.440;10.390;2023-06-26T08:11:45;8.50;;;7.13;;
77324;SDS011;66387;53.440;10.390;2023-06-26T08:14:11;7.22;;;6.40;;
77324;SDS011;66387;53.440;10.390;2023-06-26T08:16:39;7.18;;;6.47;;
77324;SDS011;66387;53.440;10.390;2023-06-26T08:19:05;7.32;;;6.63;;
77324;SDS011;66387;53.440;10.390;2023-06-26T08:21:31;7.30;;;6.25;;
77324;SDS011;66387;53.440;10.390;2023-06-26T08:23:56;6.63;;;5.87;;
77324;SDS011;66387;53.440;10.390;2023-06-26T08:26:21;7.20;;;6.50;;
77324;SDS011;66387;53.440;10.390;2023-06-26T08:28:46;9.43;;;6.53;;
77324;SDS011;66387;53.440;10.390;2023-06-26T08:31:12;8.03;;;6.50;;
77324;SDS011;66387;53.440;10.390;2023-06-26T08:33:37;8.97;;;6.60;;
77324;SDS011;66387;53.440;10.390;2023-06-26T08:36:02;7.17;;;6.43;;
77324;SDS011;66387;53.440;10.390;2023-06-26T08:38:28;7.10;;;5.78;;
77324;SDS011;66387;53.440;10.390;2023-06-26T08:40:53;7.40;;;6.70;;
77324;SDS011;66387;53.440;10.390;2023-06-26T08:43:19;7.78;;;6.97;;
77324;SDS011;66387;53.440;10.390;2023-06-26T08:45:46;7.07;;;6.40;;
77324;SDS011;66387;53.440;10.390;2023-06-26T08:48:16;7.22;;;6.53;;
77324;SDS011;66387;53.440;10.390;2023-06-26T08:50:42;8.40;;;6.40;;
77324;SDS011;66387;53.440;10.390;2023-06-26T08:53:22;6.90;;;6.25;;
77324;SDS011;66387;53.440;10.390;2023-06-26T08:55:54;7.18;;;6.32;;
77324;SDS011;66387;53.440;10.390;2023-06-26T08:58:22;7.78;;;6.40;;
77324;SDS011;66387;53.440;10.390;2023-06-26T09:00:47;7.80;;;7.03;;
77324;SDS011;66387;53.440;10.390;2023-06-26T09:03:14;7.53;;;6.82;;
77324;SDS011;66387;53.440;10.390;2023-06-26T09:05:40;8.27;;;6.45;;
77324;SDS011;66387;53.440;10.390;2023-06-26T09:08:06;7.55;;;6.85;;
77324;SDS011;66387;53.440;10.390;2023-06-26T09:10:32;7.13;;;6.13;;
77324;SDS011;66387;53.440;10.390;2023-06-26T09:12:57;8.33;;;6.63;;
77324;SDS011;66387;53.440;10.390;2023-06-26T09:15:23;7.32;;;6.63;;
77324;SDS011;66387;53.440;10.390;2023-06-26T09:17:48;8.10;;;6.97;;
77324;SDS011;66387;53.440;10.390;2023-06-26T09:20:14;9.50;;;7.50;;
77324;SDS011;66387;53.440;10.390;2023-06-26T09:22:40;7.57;;;6.78;;
77324;SDS011;66387;53.440;10.390;2023-06-26T09:25:07;7.68;;;6.97;;
77324;SDS011;66387;53.440;10.390;2023-06-26T09:27:33;7.95;;;6.65;;
77324;SDS011;66387;53.440;10.390;2023-06-26T09:29:59;7.63;;;6.80;;
77324;SDS011;66387;53.440;10.390;2023-06-26T09:32:24;7.60;;;6.80;;
77324;SDS011;66387;53.440;10.390;2023-06-26T09:34:51;8.10;;;7.32;;
77324;SDS011;66387;53.440;10.390;2023-06-26T09:37:17;9.27;;;7.45;;
77324;SDS011;66387;53.440;10.390;2023-06-26T09:39:43;7.43;;;6.73;;
77324;SDS011;66387;53.440;10.390;2023-06-26T09:42:08;7.10;;;6.40;;
77324;SDS011;66387;53.440;10.390;2023-06-26T09:44:34;8.65;;;7.75;;
77324;SDS011;66387;53.440;10.390;2023-06-26T09:47:01;8.63;;;7.73;;
77324;SDS011;66387;53.440;10.390;2023-06-26T09:49:28;7.93;;;6.80;;
77324;SDS011;66387;53.440;10.390;2023-06-26T09:51:53;7.87;;;7.17;;
77324;SDS011;66387;53.440;10.390;2023-06-26T09:54:18;9.15;;;8.10;;
77324;SDS011;66387;53.440;10.390;2023-06-26T09:56:46;12.18;;;9.07;;
77324;SDS011;66387;53.440;10.390;2023-06-26T09:59:11;10.03;;;9.00;;
77324;SDS011;66387;53.440;10.390;2023-06-26T10:01:40;9.90;;;8.60;;
77324;SDS011;66387;53.440;10.390;2023-06-26T10:04:06;9.07;;;8.27;;
77324;SDS011;66387;53.440;10.390;2023-06-26T10:06:36;9.03;;;8.00;;
77324;SDS011;66387;53.440;10.390;2023-06-26T10:09:03;8.60;;;7.70;;
77324;SDS011;66387;53.440;10.390;2023-06-26T10:11:32;10.75;;;8.45;;
77324;SDS011;66387;53.440;10.390;2023-06-26T10:14:05;9.40;;;8.45;;
77324;SDS011;66387;53.440;10.390;2023-06-26T10:16:33;11.38;;;10.38;;
77324;SDS011;66387;53.440;10.390;2023-06-26T10:19:02;13.05;;;11.88;;
77324;SDS011;66387;53.440;10.390;2023-06-26T10:21:31;11.18;;;9.48;;
77324;SDS011;66387;53.440;10.390;2023-06-26T10:23:59;11.27;;;10.18;;
77324;SDS011;66387;53.440;10.390;2023-06-26T10:26:25;10.18;;;9.18;;
77324;SDS011;66387;53.440;10.390;2023-06-26T10:28:53;11.48;;;10.43;;
77324;SDS011;66387;53.440;10.390;2023-06-26T10:31:21;10.98;;;9.15;;
77324;SDS011;66387;53.440;10.390;2023-06-26T10:33:50;10.60;;;9.18;;
77324;SDS011;66387;53.440;10.390;2023-06-26T10:36:16;13.45;;;8.93;;
77324;SDS011;66387;53.440;10.390;2023-06-26T10:38:54;8.85;;;7.93;;
77324;SDS011;66387;53.440;10.390;2023-06-26T10:41:22;10.57;;;9.48;;
77324;SDS011;66387;53.440;10.390;2023-06-26T10:43:49;8.35;;;7.65;;
77324;SDS011;66387;53.440;10.390;2023-06-26T10:46:15;6.55;;;5.88;;
77324;SDS011;66387;53.440;10.390;2023-06-26T10:48:58;4.80;;;4.27;;
77324;SDS011;66387;53.440;10.390;2023-06-26T10:51:26;7.47;;;4.68;;
77324;SDS011;66387;53.440;10.390;2023-06-26T10:53:55;8.68;;;5.30;;
77324;SDS011;66387;53.440;10.390;2023-06-26T10:56:21;7.78;;;4.38;;
77324;SDS011;66387;53.440;10.390;2023-06-26T11:01:42;6.40;;;4.85;;
77324;SDS011;66387;53.440;10.390;2023-06-26T11:04:09;6.97;;;5.25;;
77324;SDS011;66387;53.440;10.390;2023-06-26T11:06:39;7.15;;;5.18;;
77324;SDS011;66387;53.440;10.390;2023-06-26T11:14:23;6.80;;;5.47;;
77324;SDS011;66387;53.440;10.390;2023-06-26T11:16:50;7.85;;;5.47;;
77324;SDS011;66387;53.440;10.390;2023-06-26T11:19:16;7.00;;;5.05;;
77324;SDS011;66387;53.440;10.390;2023-06-26T11:21:43;6.43;;;5.38;;
77324;SDS011;66387;53.440;10.390;2023-06-26T11:24:09;6.47;;;5.35;;
77324;SDS011;66387;53.440;10.390;2023-06-26T11:26:41;6.97;;;5.10;;
77324;SDS011;66387;53.440;10.390;2023-06-26T11:29:07;6.80;;;5.63;;
77324;SDS011;66387;53.440;10.390;2023-06-26T11:31:34;7.50;;;6.03;;
77324;SDS011;66387;53.440;10.390;2023-06-26T11:34:02;6.90;;;5.10;;
77324;SDS011;66387;53.440;10.390;2023-06-26T11:36:29;7.38;;;6.65;;
77324;SDS011;66387;53.440;10.390;2023-06-26T11:38:55;7.65;;;6.85;;
77324;SDS011;66387;53.440;10.390;2023-06-26T11:41:21;8.10;;;6.97;;
77324;SDS011;66387;53.440;10.390;2023-06-26T11:43:47;10.05;;;7.80;;
77324;SDS011;66387;53.440;10.390;2023-06-26T11:46:12;11.30;;;8.07;;
77324;SDS011;66387;53.440;10.390;2023-06-26T11:48:38;9.45;;;8.45;;
77324;SDS011;66387;53.440;10.390;2023-06-26T11:51:04;9.88;;;8.63;;
77324;SDS011;66387;53.440;10.390;2023-06-26T11:53:30;11.90;;;9.30;;
77324;SDS011;66387;53.440;10.390;2023-06-26T11:55:55;13.65;;;9.48;;
77324;SDS011;66387;53.440;10.390;2023-06-26T11:58:21;10.32;;;9.23;;
77324;SDS011;66387;53.440;10.390;2023-06-26T12:00:47;11.25;;;9.70;;
77324;SDS011;66387;53.440;10.390;2023-06-26T12:03:12;11.27;;;9.57;;
77324;SDS011;66387;53.440;10.390;2023-06-26T12:05:38;13.07;;;9.17;;
77324;SDS011;66387;53.440;10.390;2023-06-26T12:08:03;12.43;;;7.93;;
77324;SDS011;66387;53.440;10.390;2023-06-26T12:10:31;15.50;;;8.05;;
77324;SDS011;66387;53.440;10.390;2023-06-26T12:12:57;9.25;;;6.95;;
77324;SDS011;66387;53.440;10.390;2023-06-26T12:15:24;9.18;;;5.72;;
77324;SDS011;66387;53.440;10.390;2023-06-26T12:17:49;6.93;;;5.80;;
77324;SDS011;66387;53.440;10.390;2023-06-26T12:20:21;9.65;;;6.60;;
77324;SDS011;66387;53.440;10.390;2023-06-26T12:22:48;7.68;;;5.28;;
77324;SDS011;66387;53.440;10.390;2023-06-26T12:25:14;7.05;;;5.53;;
77324;SDS011;66387;53.440;10.390;2023-06-26T12:27:39;12.15;;;5.85;;
77324;SDS011;66387;53.440;10.390;2023-06-26T12:30:05;6.88;;;3.70;;
77324;SDS011;66387;53.440;10.390;2023-06-26T12:32:31;8.02;;;4.00;;
77324;SDS011;66387;53.440;10.390;2023-06-26T12:34:57;5.90;;;3.80;;
77324;SDS011;66387;53.440;10.390;2023-06-26T12:37:22;9.13;;;4.47;;
77324;SDS011;66387;53.440;10.390;2023-06-26T12:39:54;5.60;;;3.13;;
77324;SDS011;66387;53.440;10.390;2023-06-26T12:42:22;9.65;;;4.00;;
77324;SDS011;66387;53.440;10.390;2023-06-26T12:44:51;8.07;;;3.75;;
77324;SDS011;66387;53.440;10.390;2023-06-26T12:47:18;5.47;;;3.10;;
77324;SDS011;66387;53.440;10.390;2023-06-26T12:49:45;10.48;;;2.90;;
77324;SDS011;66387;53.440;10.390;2023-06-26T12:52:14;8.45;;;3.15;;
77324;SDS011;66387;53.440;10.390;2023-06-26T12:54:41;4.65;;;2.85;;
77324;SDS011;66387;53.440;10.390;2023-06-26T12:57:08;5.85;;;2.55;;
77324;SDS011;66387;53.440;10.390;2023-06-26T12:59:35;6.03;;;2.67;;
77324;SDS011;66387;53.440;10.390;2023-06-26T13:04:27;4.72;;;2.90;;
77324;SDS011;66387;53.440;10.390;2023-06-26T13:06:53;6.63;;;2.88;;
77324;SDS011;66387;53.440;10.390;2023-06-26T13:09:22;6.28;;;2.55;;
77324;SDS011;66387;53.440;10.390;2023-06-26T13:11:48;3.65;;;2.42;;
77324;SDS011;66387;53.440;10.390;2023-06-26T13:14:13;4.33;;;2.10;;
77324;SDS011;66387;53.440;10.390;2023-06-26T13:16:39;5.10;;;2.00;;
77324;SDS011;66387;53.440;10.390;2023-06-26T13:19:04;5.47;;;2.63;;
77324;SDS011;66387;53.440;10.390;2023-06-26T13:21:30;5.60;;;2.43;;
77324;SDS011;66387;53.440;10.390;2023-06-26T13:23:55;7.33;;;2.90;;
77324;SDS011;66387;53.440;10.390;2023-06-26T13:26:21;7.75;;;2.47;;
77324;SDS011;66387;53.440;10.390;2023-06-26T13:28:47;8.07;;;2.58;;
77324;SDS011;66387;53.440;10.390;2023-06-26T13:31:13;4.63;;;2.45;;
77324;SDS011;66387;53.440;10.390;2023-06-26T13:33:39;4.25;;;2.15;;
77324;SDS011;66387;53.440;10.390;2023-06-26T13:36:04;4.20;;;2.40;;
77324;SDS011;66387;53.440;10.390;2023-06-26T13:38:30;4.43;;;2.30;;
77324;SDS011;66387;53.440;10.390;2023-06-26T13:40:57;4.30;;;2.45;;
77324;SDS011;66387;53.440;10.390;2023-06-26T13:43:24;3.63;;;2.10;;
77324;SDS011;66387;53.440;10.390;2023-06-26T13:45:49;5.07;;;2.77;;
77324;SDS011;66387;53.440;10.390;2023-06-26T13:48:15;5.60;;;2.50;;
77324;SDS011;66387;53.440;10.390;2023-06-26T13:50:40;4.00;;;2.20;;
77324;SDS011;66387;53.440;10.390;2023-06-26T13:53:05;4.80;;;2.40;;
77324;SDS011;66387;53.440;10.390;2023-06-26T13:55:31;6.78;;;2.40;;
77324;SDS011;66387;53.440;10.390;2023-06-26T13:57:57;5.38;;;2.80;;
77324;SDS011;66387;53.440;10.390;2023-06-26T14:00:23;3.25;;;1.80;;
77324;SDS011;66387;53.440;10.390;2023-06-26T14:02:49;4.63;;;2.20;;
77324;SDS011;66387;53.440;10.390;2023-06-26T14:05:14;3.30;;;2.20;;
77324;SDS011;66387;53.440;10.390;2023-06-26T14:07:39;3.67;;;2.10;;
77324;SDS011;66387;53.440;10.390;2023-06-26T14:10:05;5.00;;;2.83;;
77324;SDS011;66387;53.440;10.390;2023-06-26T14:12:33;3.60;;;1.85;;
77324;SDS011;66387;53.440;10.390;2023-06-26T14:14:59;6.03;;;2.15;;
77324;SDS011;66387;53.440;10.390;2023-06-26T14:17:24;6.23;;;2.20;;
77324;SDS011;66387;53.440;10.390;2023-06-26T14:19:50;7.40;;;2.63;;
77324;SDS011;66387;53.440;10.390;2023-06-26T14:22:16;3.78;;;2.33;;
77324;SDS011;66387;53.440;10.390;2023-06-26T14:24:42;5.55;;;2.05;;
77324;SDS011;66387;53.440;10.390;2023-06-26T14:27:07;5.83;;;2.23;;
77324;SDS011;66387;53.440;10.390;2023-06-26T14:29:32;4.23;;;1.70;;
77324;SDS011;66387;53.440;10.390;2023-06-26T14:31:58;4.00;;;1.87;;
77324;SDS011;66387;53.440;10.390;2023-06-26T14:34:23;3.63;;;1.47;;
77324;SDS011;66387;53.440;10.390;2023-06-26T14:36:48;3.80;;;1.80;;
77324;SDS011;66387;53.440;10.390;2023-06-26T14:39:13;3.83;;;2.07;;
77324;SDS011;66387;53.440;10.390;2023-06-26T14:41:39;3.60;;;1.90;;
77324;SDS011;66387;53.440;10.390;2023-06-26T14:44:04;3.00;;;2.07;;
77324;SDS011;66387;53.440;10.390;2023-06-26T14:46:33;4.90;;;1.73;;